Time;durP1;ratioP1;P1;durP2;ratioP2;P2;SDS_P1;SDS_P2;PMS_P1;PMS_P2;Temp;Humidity;BMP_temperature;BMP_pressure;BME280_temperature;BME280_humidity;BME280_pressure;Samples;Min_cycle;Max_cycle;Signal;HPM_P1;HPM_P2
2021/10/22 06:39:11;;;;;;;;;9.00;8.00;;;;;10.13;61.09;101732.47;6393698;22;46287;-69
2021/10/22 06:41:37;;;;;;;;;5.00;4.50;;;;;10.24;61.02;101755.44;6375636;22;45495;-68
2021/10/22 06:44:03;;;;;;;;;7.25;6.00;;;;;10.18;61.10;101749.28;6404687;22;45838;-69
2021/10/22 06:46:29;;;;;;;;;4.00;4.00;;;;;10.26;61.36;101762.53;6405354;22;45323;-69
2021/10/22 06:48:55;;;;;;;;;8.00;8.00;;;;;10.23;61.62;101762.56;6405286;22;45432;-68
2021/10/22 06:51:20;;;;;;;;;7.50;6.00;;;;;10.29;61.68;101774.94;6376192;22;45236;-68
2021/10/22 06:53:46;;;;;;;;;8.75;7.50;;;;;10.29;61.39;101770.50;6404546;22;45225;-68
2021/10/22 06:56:12;;;;;;;;;6.50;5.00;;;;;10.37;61.61;101787.31;6404666;22;45261;-68
2021/10/22 06:58:37;;;;;;;;;4.50;4.50;;;;;10.33;61.95;101777.56;6405798;22;45199;-68
2021/10/22 07:01:03;;;;;;;;;3.25;3.25;;;;;10.37;61.69;101787.31;6405770;22;45252;-69
2021/10/22 07:03:38;;;;;;;;;4.25;3.75;;;;;10.32;61.30;101780.28;6404921;22;46158;-68
2021/10/22 07:07:14;;;;;;;;;3.00;3.00;;;;;10.41;61.41;101801.50;6404866;22;45140;-67
2021/10/22 07:08:49;;;;;;;;;2.25;2.25;;;;;10.46;61.52;101801.44;6403613;22;45154;-67
2021/10/22 07:11:17;;;;;;;;;4.50;2.75;;;;;10.49;61.27;101802.28;6405205;22;45347;-67
2021/10/22 07:13:42;;;;;;;;;5.00;3.50;;;;;10.54;61.42;101800.41;6404935;22;45286;-67
2021/10/22 07:16:08;;;;;;;;;3.25;3.25;;;;;10.54;61.87;101795.06;6405692;22;45222;-68
2021/10/22 07:18:33;;;;;;;;;6.50;5.50;;;;;10.58;61.23;101811.91;6404601;22;45256;-68
2021/10/22 07:20:59;;;;;;;;;8.00;4.25;;;;;10.54;61.56;101794.16;6405366;22;45341;-68
2021/10/22 07:23:25;;;;;;;;;3.00;3.00;;;;;10.57;61.80;101795.03;6375663;22;46401;-68
2021/10/22 07:25:50;;;;;;;;;8.25;5.00;;;;;10.60;61.81;101795.88;6405418;22;45304;-67
2021/10/22 07:28:16;;;;;;;;;8.00;4.50;;;;;10.61;61.25;101790.50;6405735;22;45249;-67
2021/10/22 07:30:44;;;;;;;;;5.25;4.00;;;;;10.65;62.19;101802.91;6405302;22;45374;-67
2021/10/22 07:33:11;;;;;;;;;4.75;4.50;;;;;10.66;61.24;101809.09;6404421;22;45322;-67
2021/10/22 07:35:39;;;;;;;;;5.75;5.00;;;;;10.67;61.80;101814.44;6404468;22;45248;-67
2021/10/22 07:38:10;;;;;;;;;6.75;5.00;;;;;10.66;61.46;101820.69;6404268;22;45308;-67
2021/10/22 07:40:37;;;;;;;;;6.00;5.00;;;;;10.69;61.45;101819.75;6403881;22;45373;-67
2021/10/22 07:43:02;;;;;;;;;6.00;4.75;;;;;10.68;61.46;101826.03;6404282;22;46250;-64
2021/10/22 07:45:28;;;;;;;;;8.75;7.50;;;;;10.70;61.97;101821.53;6391791;22;45666;-68
2021/10/22 07:47:53;;;;;;;;;9.25;8.00;;;;;10.67;61.55;101821.56;6401875;22;45331;-67
2021/10/22 07:50:19;;;;;;;;;6.50;6.00;;;;;10.66;61.45;101820.69;6403632;22;45600;-67
2021/10/22 07:52:45;;;;;;;;;5.50;4.75;;;;;10.67;61.16;101833.13;6402442;22;47121;-67
2021/10/22 07:55:10;;;;;;;;;7.50;5.50;;;;;10.68;61.99;101829.56;6404047;22;45492;-67
2021/10/22 07:57:36;;;;;;;;;5.00;4.00;;;;;10.66;61.41;101823.38;6404143;22;45497;-67
2021/10/22 08:00:02;;;;;;;;;9.00;8.00;;;;;10.71;61.40;101820.63;6403211;22;45536;-67
2021/10/22 08:02:28;;;;;;;;;5.00;5.00;;;;;10.70;61.69;101833.09;6403775;22;46503;-67
2021/10/22 08:04:53;;;;;;;;;4.75;4.50;;;;;10.66;61.69;101822.47;6404338;22;45138;-67
2021/10/22 08:07:23;;;;;;;;;5.00;4.25;;;;;10.72;61.41;101839.28;6403950;22;45240;-67
2021/10/22 08:09:49;;;;;;;;;3.00;2.00;;;;;10.70;61.72;101822.41;6374622;22;45611;-67
2021/10/22 08:12:15;;;;;;;;;5.00;3.25;;;;;10.76;61.72;101856.16;6403053;22;45360;-65
2021/10/22 08:14:42;;;;;;;;;5.00;3.75;;;;;10.77;61.60;101847.22;6403094;22;45364;-65
2021/10/22 08:17:08;;;;;;;;;5.75;2.75;;;;;10.74;61.10;101844.59;6403661;22;45361;-68
2021/10/22 08:19:33;;;;;;;;;2.75;2.75;;;;;10.80;61.60;101851.66;6402986;22;45434;-70
2021/10/22 08:24:43;;;;;;;;;4.75;3.00;;;;;10.84;61.59;101856.03;6402981;22;45433;-73
2021/10/22 08:27:08;;;;;;;;;3.00;3.00;;;;;10.84;61.31;101856.03;6403958;22;45336;-76
2021/10/22 08:29:34;;;;;;;;;2.25;2.00;;;;;10.85;61.15;101869.34;6404609;22;45260;-75
2021/10/22 08:32:00;;;;;;;;;2.00;2.00;;;;;10.84;61.65;101864.03;6405270;22;46304;-74
2021/10/22 08:34:27;;;;;;;;;2.00;2.00;;;;;10.81;61.58;101864.06;6404601;22;45286;-72
2021/10/22 08:36:53;;;;;;;;;3.00;3.00;;;;;10.93;61.19;101875.47;6376247;22;45377;-70
2021/10/22 08:39:19;;;;;;;;;3.00;2.75;;;;;10.94;61.73;101868.31;6404908;22;45246;-70
2021/10/22 08:41:46;;;;;;;;;3.50;3.50;;;;;11.04;61.68;101879.75;6405295;22;45481;-70
2021/10/22 08:44:12;;;;;;;;;4.50;3.50;;;;;11.09;61.65;101880.56;6404378;22;45623;-69
2021/10/22 08:46:41;;;;;;;;;2.50;2.50;;;;;11.05;61.91;101866.38;6405036;22;45300;-70
2021/10/22 08:49:11;;;;;;;;;3.75;3.00;;;;;11.15;61.58;101871.56;6404972;22;45240;-70
2021/10/22 08:51:37;;;;;;;;;2.00;2.00;;;;;11.22;61.72;101879.44;6376081;22;47198;-70
2021/10/22 08:54:02;;;;;;;;;2.00;2.00;;;;;11.29;61.58;101882.88;6375403;22;45730;-70
2021/10/22 08:56:27;;;;;;;;;2.00;2.00;;;;;11.35;62.02;101885.47;6405093;22;45337;-70
2021/10/22 08:58:53;;;;;;;;;3.00;3.00;;;;;11.38;61.99;101884.56;6404743;22;45294;-70
2021/10/22 09:01:18;;;;;;;;;2.00;2.00;;;;;11.41;61.67;101877.34;6403292;22;45278;-70
2021/10/22 09:03:43;;;;;;;;;1.25;1.25;;;;;11.49;61.42;101888.78;6403526;22;45222;-70
2021/10/22 09:06:14;;;;;;;;;4.25;1.00;;;;;11.58;60.89;101892.22;6405935;22;45331;-69
2021/10/22 09:08:42;;;;;;;;;1.00;1.00;;;;;11.59;61.00;101876.13;6404789;22;45353;-70
2021/10/22 09:11:32;;;;;;;;;2.50;0.00;;;;;11.70;61.29;101891.97;6404686;22;45388;-68
2021/10/22 09:14:07;;;;;;;;;2.00;2.00;;;;;11.76;61.29;101897.22;6404752;22;45460;-70
2021/10/22 09:16:40;;;;;;;;;3.50;2.25;;;;;11.77;61.08;101888.25;6404313;22;45377;-70
2021/10/22 09:19:06;;;;;;;;;3.00;2.00;;;;;11.85;61.88;101902.38;6405356;22;45308;-69
2021/10/22 09:21:32;;;;;;;;;2.50;1.75;;;;;11.91;61.04;101897.81;6405229;22;45300;-67
2021/10/22 09:24:19;;;;;;;;;6.00;3.00;;;;;11.92;60.92;101892.47;6403871;22;45680;-75
2021/10/22 09:26:53;;;;;;;;;3.00;3.00;;;;;12.01;61.25;101910.13;6405057;22;45356;-69
2021/10/22 09:29:25;;;;;;;;;2.75;1.00;;;;;12.03;60.60;101909.22;6404611;22;45341;-70
2021/10/22 09:31:51;;;;;;;;;2.25;2.25;;;;;12.11;60.92;101917.09;6404474;22;46005;-70
2021/10/22 09:34:37;;;;;;;;;2.00;1.00;;;;;12.17;60.92;101910.72;6404242;22;45195;-70
2021/10/22 09:37:12;;;;;;;;;1.75;1.75;;;;;12.23;60.65;101921.31;6375465;22;45286;-70
2021/10/22 09:39:39;;;;;;;;;2.00;2.00;;;;;12.29;60.42;101918.50;6375622;22;45913;-70
2021/10/22 09:42:14;;;;;;;;;3.25;1.00;;;;;12.33;60.53;101917.53;6404427;22;46278;-70
2021/10/22 09:44:41;;;;;;;;;4.50;2.00;;;;;12.38;60.62;101915.63;6403713;22;45564;-70
2021/10/22 09:47:07;;;;;;;;;1.75;1.50;;;;;12.43;60.69;101920.91;6405050;22;45381;-70
2021/10/22 09:49:38;;;;;;;;;1.00;1.00;;;;;12.48;60.93;101920.78;6405346;22;45260;-70
2021/10/22 09:52:26;;;;;;;;;2.00;2.00;;;;;12.54;61.28;101928.69;6404749;22;45339;-71
2021/10/22 09:55:13;;;;;;;;;7.25;5.75;;;;;12.60;60.91;101932.13;6404355;22;45650;-70
2021/10/22 09:57:39;;;;;;;;;2.00;2.00;;;;;12.66;60.37;101930.22;6404421;22;45158;-68
2021/10/22 10:00:10;;;;;;;;;3.00;2.00;;;;;12.72;60.59;101924.72;6404800;22;45404;-73
2021/10/22 10:02:37;;;;;;;;;1.75;1.75;;;;;12.78;60.37;101921.94;6404471;22;46271;-71
2021/10/22 10:05:08;;;;;;;;;2.00;2.00;;;;;12.81;60.05;101919.16;6404707;22;45290;-70
2021/10/22 10:07:38;;;;;;;;;3.25;2.00;;;;;12.84;60.34;101931.59;6403222;22;45383;-68
2021/10/22 10:10:06;;;;;;;;;2.00;2.00;;;;;12.92;59.90;101927.81;6403879;22;45277;-69
2021/10/22 10:12:33;;;;;;;;;3.00;3.00;;;;;12.96;59.85;101928.63;6404130;22;46837;-68
2021/10/22 10:14:58;;;;;;;;;3.00;2.00;;;;;12.98;60.22;101918.78;6404808;22;45336;-71
2021/10/22 10:17:25;;;;;;;;;4.00;3.00;;;;;13.07;60.21;101928.41;6376448;22;45288;-70
2021/10/22 10:19:52;;;;;;;;;2.00;2.00;;;;;13.05;60.50;101914.16;6376823;22;45569;-69
2021/10/22 10:22:21;;;;;;;;;2.00;2.00;;;;;13.14;59.89;101928.19;6404912;22;45392;-67
2021/10/22 10:24:57;;;;;;;;;2.75;1.75;;;;;13.22;59.36;101938.75;6404563;22;45262;-67
2021/10/22 10:27:26;;;;;;;;;1.00;0.75;;;;;13.26;59.81;101936.88;6405441;22;45395;-67
2021/10/22 10:29:56;;;;;;;;;2.50;1.25;;;;;13.26;59.03;101935.06;6405126;22;45301;-67
2021/10/22 10:32:24;;;;;;;;;2.50;2.00;;;;;13.29;59.19;101934.09;6376411;22;46246;-68
2021/10/22 10:35:00;;;;;;;;;1.75;1.75;;;;;13.34;58.88;101941.16;6375634;22;45404;-67
2021/10/22 10:37:29;;;;;;;;;2.00;2.00;;;;;13.39;59.11;101951.75;6402470;22;45327;-67
2021/10/22 10:40:03;;;;;;;;;3.25;2.00;;;;;13.43;58.98;101937.38;6404095;22;45487;-67
2021/10/22 10:42:41;;;;;;;;;3.25;2.75;;;;;13.46;58.95;101936.41;6404000;22;46003;-67
2021/10/22 10:45:36;;;;;;;;;1.75;1.75;;;;;13.48;58.81;101938.13;6403401;22;45227;-67
2021/10/22 10:48:06;;;;;;;;;3.00;2.00;;;;;13.48;58.93;101930.09;6404306;22;45361;-68
2021/10/22 10:51:04;;;;;;;;;3.50;2.00;;;;;13.56;58.65;101940.59;6405169;22;45352;-67
2021/10/22 10:53:40;;;;;;;;;3.25;2.25;;;;;13.59;58.62;101936.97;6402562;22;46963;-67
2021/10/22 10:56:35;;;;;;;;;2.00;2.00;;;;;13.64;58.44;101935.94;6403182;22;45602;-68
2021/10/22 10:59:02;;;;;;;;;3.00;2.50;;;;;13.65;59.12;101926.97;6391044;22;45384;-67
2021/10/22 11:01:31;;;;;;;;;4.00;2.00;;;;;13.71;58.93;101929.50;6404658;22;45154;-68
2021/10/22 11:03:58;;;;;;;;;1.00;1.00;;;;;13.70;58.23;101924.16;6404187;22;46913;-69
2021/10/22 11:06:36;;;;;;;;;1.50;1.50;;;;;13.78;58.40;101935.59;6404941;22;45448;-72
2021/10/22 11:09:04;;;;;;;;;1.25;1.25;;;;;13.80;58.18;101927.47;6404757;22;45162;-68
2021/10/22 11:11:34;;;;;;;;;3.00;2.00;;;;;13.80;57.90;101922.09;6404720;22;45327;-68
2021/10/22 11:14:04;;;;;;;;;2.00;2.00;;;;;13.89;58.27;101937.97;6404780;22;45361;-67
2021/10/22 11:16:44;;;;;;;;;1.00;1.00;;;;;13.91;58.33;101936.09;6404361;22;45455;-66
2021/10/22 11:19:29;;;;;;;;;1.00;1.00;;;;;13.96;58.36;101936.84;6405102;22;45233;-67
2021/10/22 11:22:02;;;;;;;;;1.00;1.00;;;;;13.96;57.90;101923.44;6403637;22;45253;-66
2021/10/22 11:24:33;;;;;;;;;3.00;1.00;;;;;14.00;57.63;101932.28;6403341;22;45339;-67
2021/10/22 11:27:05;;;;;;;;;0.25;0.25;;;;;14.06;58.16;101933.00;6404200;22;45688;-67
2021/10/22 11:29:33;;;;;;;;;3.00;1.00;;;;;14.09;57.54;101934.72;6402488;22;45241;-68
2021/10/22 11:32:01;;;;;;;;;2.00;1.00;;;;;14.14;57.41;101924.72;6402767;22;45354;-68
2021/10/22 11:34:38;;;;;;;;;1.00;1.00;;;;;14.17;57.64;101918.41;6402496;22;45313;-66
2021/10/22 11:37:10;;;;;;;;;2.50;1.00;;;;;14.22;57.69;101932.59;6399903;22;45414;-67
2021/10/22 11:39:47;;;;;;;;;3.00;1.00;;;;;14.26;56.99;101934.25;6399145;22;45388;-66
2021/10/22 11:42:14;;;;;;;;;2.25;1.00;;;;;14.29;56.62;101926.09;6400506;22;45406;-68
2021/10/22 11:44:45;;;;;;;;;0.00;0.00;;;;;14.23;56.47;101908.38;6399823;22;45667;-67
2021/10/22 11:47:12;;;;;;;;;1.75;1.00;;;;;14.36;56.17;101926.81;6400070;22;45966;-66
2021/10/22 11:49:38;;;;;;;;;1.50;1.00;;;;;14.37;55.93;101928.56;6400048;22;45843;-67
2021/10/22 11:52:08;;;;;;;;;1.00;1.00;;;;;14.37;55.49;101926.75;6400001;22;45343;-66
2021/10/22 11:54:50;;;;;;;;;1.00;1.00;;;;;14.39;54.73;101918.66;6399340;22;45502;-66
2021/10/22 11:57:21;;;;;;;;;1.00;0.00;;;;;14.42;55.14;101919.44;6399637;22;45380;-66
2021/10/22 11:59:55;;;;;;;;;0.00;0.00;;;;;14.38;54.92;101901.66;6396433;22;45469;-66
2021/10/22 12:02:29;;;;;;;;;1.25;1.25;;;;;14.41;54.82;101895.31;6404119;22;45345;-66
2021/10/22 12:05:02;;;;;;;;;1.00;1.00;;;;;14.48;54.91;101910.31;6403314;22;45375;-66
2021/10/22 12:07:34;;;;;;;;;1.00;1.00;;;;;14.50;54.88;101902.19;6405725;22;45824;-66
2021/10/22 12:09:59;;;;;;;;;1.00;1.00;;;;;14.51;54.75;101906.66;6406090;22;45157;-66
2021/10/22 13:01:53;;;;;;;;;3.75;1.75;;;;;14.34;55.05;101840.03;6348365;22;46937;-65
2021/10/22 14:32:02;;;;;;;;;;;;;;;;;;;;;
2021/10/22 14:38:07;;;;;;;;;2.75;2.00;;;;;14.95;55.09;101923.22;6169857;22;45541;-70
2021/10/22 14:44:15;;;;;;;;;;;;;;;;;;;;;
2021/10/22 14:47:08;;;;;;;;;;;;;;;;;;;;;
2021/10/22 14:55:45;;;;;;;;;3.75;2.00;;;;;14.86;54.99;101927.09;6324574;22;45369;-70
2021/10/22 15:01:29;;;;;;;;;0.75;0.25;;;;;14.90;55.23;101930.56;6355114;22;45538;-70
2021/10/22 15:05:26;;;;;;;;;1.00;1.00;;;;;15.01;55.11;101952.63;6372542;22;45374;-70
2021/10/22 15:08:14;;;;;;;;;;;;;;;;;;;;;
2021/10/22 15:10:51;;;;;;;;;3.00;2.00;;;;;15.09;55.27;101968.53;6371227;22;71894;-74
2021/10/22 15:13:39;;;;;;;;;1.75;0.75;;;;;14.87;55.28;101936.94;6371736;22;45400;-71
2021/10/22 15:16:14;;;;;;;;;3.00;1.00;;;;;14.86;55.32;101926.22;6370926;22;45511;-72
2021/10/22 16:55:05;;;;;;;;;;;;;;;;;;;;;
2021/10/22 17:24:51;;;;;;;;;4.00;4.00;;;;;14.63;58.49;102001.25;5608025;22;15088775;-66
2021/10/22 17:27:29;;;;;;;;;3.50;3.50;;;;;14.67;58.40;102015.50;6332159;22;46052;-67
2021/10/22 17:29:57;;;;;;;;;3.00;3.00;;;;;14.60;58.30;102004.03;6313151;22;45778;-66
2021/10/22 17:32:42;;;;;;;;;7.00;4.00;;;;;14.78;58.50;102033.97;6343889;22;45773;-67
2021/10/22 17:35:13;;;;;;;;;4.00;3.25;;;;;14.71;58.80;102044.03;6344055;22;45449;-68
2021/10/22 17:37:38;;;;;;;;;2.00;2.00;;;;;14.75;58.30;102056.47;6343373;22;47010;-67
2021/10/22 17:40:05;;;;;;;;;3.50;3.50;;;;;14.77;58.73;102053.75;6343968;22;45366;-67
2021/10/22 17:42:41;;;;;;;;;5.25;4.75;;;;;14.44;58.82;102013.44;6315589;22;45481;-67
2021/10/22 17:45:07;;;;;;;;;5.25;3.75;;;;;14.57;59.27;102030.97;6344745;22;45567;-66
2021/10/22 17:47:36;;;;;;;;;6.75;6.75;;;;;14.67;58.84;102044.16;6342154;22;47488;-66
2021/10/22 17:50:02;;;;;;;;;5.50;5.25;;;;;14.59;58.70;102039.88;6343799;22;45653;-66
2021/10/22 17:52:27;;;;;;;;;5.00;5.00;;;;;14.48;59.29;102028.53;6343934;22;46375;-66
2021/10/22 17:54:53;;;;;;;;;5.00;3.50;;;;;14.41;59.17;102018.88;6343582;22;45495;-66
2021/10/22 17:57:21;;;;;;;;;4.75;4.50;;;;;14.43;58.96;102025.09;6316567;22;45660;-67
2021/10/22 17:59:46;;;;;;;;;4.25;4.00;;;;;14.58;59.04;102047.94;6344094;22;45675;-66
2021/10/22 18:02:12;;;;;;;;;4.25;4.25;;;;;14.71;59.27;102061.97;6344073;22;45361;-66
2021/10/22 18:04:38;;;;;;;;;5.50;3.75;;;;;14.42;59.15;102021.53;6315616;22;45601;-67
2021/10/22 18:07:03;;;;;;;;;7.00;6.00;;;;;14.62;59.01;102064.00;6343528;22;45445;-67
2021/10/22 18:10:18;;;;;;;;;6.00;5.25;;;;;14.67;58.99;102073.72;6343939;22;45740;-67
2021/10/22 18:13:34;;;;;;;;;6.00;5.00;;;;;14.65;59.25;102071.09;6344159;22;46053;-68
2021/10/22 18:16:00;;;;;;;;;6.00;6.00;;;;;14.63;59.35;102083.66;6324686;22;45360;-70
2021/10/22 18:18:28;;;;;;;;;6.50;5.00;;;;;14.62;59.27;102082.81;6343643;22;46373;-70
2021/10/22 18:21:02;;;;;;;;;6.25;5.00;;;;;14.29;59.05;102020.09;6341170;22;46005;-66
2021/10/22 18:23:27;;;;;;;;;6.75;5.25;;;;;14.25;59.52;102021.13;6306083;22;45505;-70
2021/10/22 18:25:53;;;;;;;;;7.00;6.25;;;;;14.43;59.15;102043.88;6336774;22;45699;-69
2021/10/22 18:28:40;;;;;;;;;7.25;6.50;;;;;14.39;59.42;102042.22;6337180;22;46465;-69
2021/10/22 18:31:09;;;;;;;;;8.25;8.00;;;;;14.59;59.72;102082.00;6336511;22;45670;-69
2021/10/22 18:33:38;;;;;;;;;9.00;5.00;;;;;14.56;59.63;102079.38;6336422;22;45501;-69
2021/10/22 18:36:11;;;;;;;;;6.25;5.50;;;;;14.38;59.28;102051.19;6309061;22;45401;-70
2021/10/22 18:38:38;;;;;;;;;7.25;5.25;;;;;14.50;59.83;102084.91;6336639;22;45869;-68
2021/10/22 18:41:08;;;;;;;;;6.00;6.00;;;;;14.49;59.46;102088.53;6336341;22;45728;-68
2021/10/22 18:43:34;;;;;;;;;8.00;6.25;;;;;14.25;59.74;102047.97;6335024;22;45380;-70
2021/10/22 18:46:15;;;;;;;;;;;;;;;;;;;;;
2021/10/22 18:51:57;;;;;;;;;9.25;7.00;;;;;14.39;60.04;102085.22;6336608;22;45414;-69
2021/10/22 18:54:26;;;;;;;;;7.25;5.00;;;;;14.31;60.27;102077.34;6336594;22;45398;-68
2021/10/22 18:57:00;;;;;;;;;9.50;8.00;;;;;14.46;60.19;102098.41;6336620;22;45964;-69
2021/10/22 18:59:26;;;;;;;;;10.00;7.00;;;;;14.23;60.15;102049.81;6308518;22;47303;-68
2021/10/22 19:01:56;;;;;;;;;6.75;6.00;;;;;14.13;60.32;102043.78;6308575;22;45827;-69
2021/10/22 19:04:32;;;;;;;;;7.50;6.25;;;;;14.12;60.13;102047.41;6336523;22;45449;-69
2021/10/22 19:07:07;;;;;;;;;8.50;8.50;;;;;14.09;60.15;102031.38;6336454;22;45369;-68
2021/10/22 19:09:35;;;;;;;;;8.75;8.75;;;;;14.23;59.99;102049.81;6336362;22;46095;-68
2021/10/22 19:12:19;;;;;;;;;7.00;6.00;;;;;14.31;59.77;102076.47;6308392;22;45693;-69
2021/10/22 19:14:53;;;;;;;;;9.00;7.00;;;;;14.33;59.75;102075.50;6337129;22;45427;-68
2021/10/22 19:17:21;;;;;;;;;11.25;9.25;;;;;14.32;59.89;102078.25;6333274;22;45828;-68
2021/10/22 19:19:47;;;;;;;;;8.25;7.00;;;;;14.37;59.60;102096.00;6334876;22;46557;-70
2021/10/22 19:22:21;;;;;;;;;9.75;7.75;;;;;14.27;59.72;102075.69;6333090;22;45490;-69
2021/10/22 19:24:51;;;;;;;;;10.50;10.50;;;;;14.34;59.89;102088.00;6335787;22;45961;-70
2021/10/22 19:27:18;;;;;;;;;11.00;9.75;;;;;14.53;59.88;102120.63;6334300;22;46083;-69
2021/10/22 19:30:07;;;;;;;;;8.50;7.00;;;;;14.33;59.74;102078.16;6335386;22;46218;-69
2021/10/22 19:32:42;;;;;;;;;10.25;8.50;;;;;14.41;60.03;102104.84;6332538;22;45872;-69
2021/10/22 19:35:28;;;;;;;;;;;;;;;;;;;;;
2021/10/22 19:38:14;;;;;;;;;;;;;;;;;;;;;
2021/10/22 19:40:44;;;;;;;;;11.00;10.00;;;;;14.33;59.96;102101.47;6334118;22;75753;-70
2021/10/22 19:46:42;;;;;;;;;10.25;10.25;;;;;14.17;59.84;102080.41;6285873;22;45481;-70
2021/10/22 19:49:07;;;;;;;;;10.75;9.25;;;;;14.45;59.80;102131.59;6335044;22;45411;-69
2021/10/22 19:51:39;;;;;;;;;11.00;10.25;;;;;14.26;59.92;102095.38;6336557;22;45579;-69
2021/10/22 19:54:05;;;;;;;;;7.00;6.25;;;;;14.33;60.02;102098.78;6307308;22;45827;-69
2021/10/22 19:56:31;;;;;;;;;9.50;9.50;;;;;14.33;59.78;102113.09;6307793;22;45490;-69
2021/10/22 19:58:57;;;;;;;;;10.25;9.75;;;;;14.39;59.87;102129.06;6336767;22;45418;-64
2021/10/22 20:01:25;;;;;;;;;9.50;8.50;;;;;14.33;59.99;102121.16;6336186;22;45509;-65
2021/10/22 20:03:51;;;;;;;;;8.75;8.75;;;;;14.32;59.74;102122.09;6336192;22;45376;-69
2021/10/22 20:06:17;;;;;;;;;13.00;13.00;;;;;14.43;60.01;102140.59;6336117;22;45460;-68
2021/10/22 20:08:44;;;;;;;;;11.25;10.00;;;;;14.38;59.98;102129.09;6336398;22;45684;-69
2021/10/22 20:11:10;;;;;;;;;13.00;12.00;;;;;14.20;60.20;102103.59;6335834;22;45634;-70
2021/10/22 20:13:38;;;;;;;;;10.25;9.25;;;;;14.33;59.70;102122.97;6336093;22;45773;-70
2021/10/22 20:16:05;;;;;;;;;11.75;11.00;;;;;14.46;59.87;102141.41;6336220;22;45619;-70
2021/10/22 20:18:31;;;;;;;;;11.25;9.50;;;;;14.34;59.50;102131.00;6307909;22;45613;-71
2021/10/22 20:20:57;;;;;;;;;9.00;9.00;;;;;14.17;59.42;102091.13;6336232;22;45518;-69
2021/10/22 20:23:23;;;;;;;;;8.25;8.25;;;;;14.55;59.47;102164.47;6335182;22;45766;-70
2021/10/22 20:25:48;;;;;;;;;9.00;7.75;;;;;14.49;59.53;102144.94;6308292;22;45697;-70
2021/10/22 20:28:14;;;;;;;;;10.75;9.50;;;;;14.23;59.20;102103.50;6308414;22;45456;-71
2021/10/22 20:30:41;;;;;;;;;9.00;8.00;;;;;14.46;59.22;102146.78;6335590;22;45797;-71
2021/10/22 20:33:09;;;;;;;;;11.50;9.00;;;;;14.27;59.41;102124.00;6335579;22;45633;-72
2021/10/22 20:36:14;;;;;;;;;;;;;;;;;;;;;
2021/10/22 20:38:52;;;;;;;;;8.25;8.00;;;;;14.37;59.21;102138.09;6334742;22;71804;-69
2021/10/22 20:41:19;;;;;;;;;7.25;7.25;;;;;14.29;59.19;102137.41;6335955;22;45434;-70
2021/10/22 20:43:54;;;;;;;;;11.00;9.25;;;;;14.32;59.29;102151.63;6335277;22;45490;-69
2021/10/22 20:46:21;;;;;;;;;9.00;7.00;;;;;14.45;59.25;102174.59;6336537;22;45487;-69
2021/10/22 20:49:05;;;;;;;;;6.25;6.25;;;;;14.22;59.02;102144.75;6336250;22;45432;-70
2021/10/22 20:59:42;;;;;;;;;11.00;9.25;;;;;14.12;59.12;102156.63;6336153;22;45319;-69
2021/10/22 21:02:13;;;;;;;;;7.25;6.50;;;;;14.07;58.97;102149.56;6335283;22;45488;-69
2021/10/22 21:04:39;;;;;;;;;8.00;7.25;;;;;14.03;59.02;102164.00;6307495;22;45385;-75
2021/10/22 21:07:13;;;;;;;;;8.50;7.25;;;;;13.96;59.15;102148.94;6306992;22;45347;-69
2021/10/22 21:09:42;;;;;;;;;7.25;7.25;;;;;14.07;58.97;102171.03;6335840;22;45594;-70
2021/10/22 21:12:30;;;;;;;;;7.75;7.75;;;;;14.01;59.40;102162.25;6335926;22;46333;-70
2021/10/22 21:18:35;;;;;;;;;;;;;;;;;;;;;
2021/10/22 21:21:01;;;;;;;;;6.25;6.00;;;;;13.98;59.50;102171.28;6335144;22;72417;-80
2021/10/22 21:23:26;;;;;;;;;6.00;6.00;;;;;13.90;59.07;102152.66;6334655;22;46512;-70
2021/10/22 21:29:40;;;;;;;;;;;;;;;;;;;;;
2021/10/22 21:32:19;;;;;;;;;;;;;;;;;;;;;
2021/10/22 21:34:44;;;;;;;;;9.25;6.25;;;;;13.92;59.07;102166.03;6339171;22;75479;-69
2021/10/22 21:37:10;;;;;;;;;7.50;7.00;;;;;14.15;59.26;102211.16;6340640;22;45212;-69
2021/10/22 21:39:40;;;;;;;;;9.25;7.75;;;;;14.08;59.33;102199.66;6340992;22;45249;-69
2021/10/22 21:42:08;;;;;;;;;7.50;6.25;;;;;13.78;59.14;102163.69;6340826;22;45346;-69
2021/10/22 21:44:39;;;;;;;;;7.75;6.50;;;;;13.69;58.90;102147.78;6340380;22;45464;-69
2021/10/22 21:47:04;;;;;;;;;8.00;6.75;;;;;13.74;59.48;102169.16;6340905;22;45393;-69
2021/10/22 21:49:32;;;;;;;;;12.00;8.00;;;;;13.78;59.62;102182.47;6338771;22;45571;-69
2021/10/22 21:52:20;;;;;;;;;7.25;5.75;;;;;13.78;59.74;102181.56;6311855;22;45925;-69
2021/10/22 21:54:50;;;;;;;;;6.00;6.00;;;;;13.69;59.52;102167.44;6340610;22;45352;-69
2021/10/22 21:57:20;;;;;;;;;7.50;7.50;;;;;13.76;59.54;102186.09;6341211;22;45294;-69
2021/10/22 21:59:49;;;;;;;;;9.50;7.25;;;;;13.56;59.68;102163.28;6342065;22;45254;-69
2021/10/22 22:02:15;;;;;;;;;7.00;7.00;;;;;13.53;59.86;102156.19;6341577;22;45532;-68
2021/10/22 22:04:42;;;;;;;;;7.00;7.00;;;;;13.58;59.28;102163.25;6313862;22;47759;-69
2021/10/22 22:07:21;;;;;;;;;;;;;;;;;;;;;
2021/10/22 22:09:49;;;;;;;;;8.75;7.75;;;;;13.60;60.00;102173.03;6340783;22;67545;-69
2021/10/22 22:12:14;;;;;;;;;8.25;6.00;;;;;13.78;59.66;102203.03;6313235;22;45509;-69
2021/10/22 22:14:47;;;;;;;;;8.75;7.50;;;;;13.51;59.83;102162.50;6341876;22;45485;-69
2021/10/22 22:17:12;;;;;;;;;7.50;7.50;;;;;13.51;59.83;102173.22;6313358;22;45377;-69
2021/10/22 22:19:46;;;;;;;;;7.25;7.25;;;;;13.73;59.87;102213.00;6342426;22;45333;-69
2021/10/22 22:22:13;;;;;;;;;10.00;6.50;;;;;13.61;59.88;102196.25;6341332;22;45246;-69
2021/10/22 22:24:45;;;;;;;;;11.00;8.00;;;;;13.69;60.21;102213.06;6341994;22;45397;-69
2021/10/22 22:27:10;;;;;;;;;8.00;7.50;;;;;13.48;60.04;102182.25;6342207;22;45166;-69
2021/10/22 22:29:38;;;;;;;;;7.75;6.50;;;;;13.58;60.32;102201.72;6342416;22;45163;-69
2021/10/22 22:32:11;;;;;;;;;5.50;5.50;;;;;13.65;59.99;102205.16;6313535;22;45298;-69
2021/10/22 22:34:42;;;;;;;;;8.00;7.75;;;;;13.58;60.40;102193.66;6313545;22;47650;-69
2021/10/22 22:37:20;;;;;;;;;;;;;;;;;;;;;
2021/10/22 22:39:57;;;;;;;;;6.25;6.25;;;;;13.56;60.22;102195.47;6340754;22;67561;-69
2021/10/22 22:42:23;;;;;;;;;10.50;7.00;;;;;13.55;60.22;102201.78;6341803;22;45314;-69
2021/10/22 22:44:53;;;;;;;;;10.00;6.25;;;;;13.58;60.07;102216.91;6342046;22;45271;-69
2021/10/22 22:47:23;;;;;;;;;6.00;6.00;;;;;13.71;60.14;102232.72;6313627;22;45484;-69
2021/10/22 22:49:54;;;;;;;;;5.00;5.00;;;;;13.76;60.29;102240.66;6313724;22;45397;-69
2021/10/22 22:52:30;;;;;;;;;6.50;6.50;;;;;13.46;59.94;102205.50;6341169;22;45325;-69
2021/10/22 22:54:55;;;;;;;;;8.00;7.00;;;;;13.65;60.13;102224.78;6313606;22;47338;-69
2021/10/22 22:57:23;;;;;;;;;7.25;7.00;;;;;13.72;59.93;102233.59;6339625;22;45229;-69
2021/10/22 22:59:49;;;;;;;;;6.50;4.75;;;;;13.52;60.10;102209.88;6313840;22;45368;-69
2021/10/22 23:02:26;;;;;;;;;;;;;;;;;;;;;
2021/10/22 23:04:55;;;;;;;;;7.00;7.00;;;;;13.50;60.17;102206.34;6340809;22;75237;-69
2021/10/22 23:07:23;;;;;;;;;6.00;6.00;;;;;13.53;60.45;102208.94;6313112;22;45484;-69
2021/10/22 23:09:53;;;;;;;;;6.75;6.50;;;;;13.34;60.39;102178.94;6313531;22;45384;-69
2021/10/22 23:12:26;;;;;;;;;7.00;7.00;;;;;13.51;60.18;102213.47;6341390;22;45251;-69
2021/10/22 23:14:57;;;;;;;;;5.00;5.00;;;;;13.41;60.43;102188.63;6341761;22;45341;-69
2021/10/22 23:17:22;;;;;;;;;7.25;6.50;;;;;13.58;60.27;102228.53;6341927;22;45539;-69
2021/10/22 23:19:50;;;;;;;;;7.50;6.00;;;;;13.55;60.70;102214.28;6342155;22;45259;-69
2021/10/22 23:22:25;;;;;;;;;8.75;7.75;;;;;13.38;60.38;102206.59;6340447;22;45239;-69
2021/10/22 23:25:00;;;;;;;;;5.75;5.75;;;;;13.49;60.80;102224.22;6313349;22;47318;-69
2021/10/22 23:27:28;;;;;;;;;10.50;7.25;;;;;13.36;60.83;102209.31;6341665;22;45310;-69
2021/10/22 23:29:58;;;;;;;;;6.25;5.75;;;;;13.46;60.88;102232.34;6339948;22;45172;-69
2021/10/22 23:32:26;;;;;;;;;7.50;5.75;;;;;13.63;60.73;102242.75;6312760;22;45935;-69
2021/10/22 23:34:52;;;;;;;;;10.25;6.00;;;;;13.50;60.58;102220.63;6341946;22;46201;-69
2021/10/22 23:37:25;;;;;;;;;8.00;6.00;;;;;13.61;60.58;102241.00;6341500;22;45223;-69
2021/10/22 23:40:09;;;;;;;;;;;;;;;;;;;;;
2021/10/22 23:42:35;;;;;;;;;7.00;6.25;;;;;13.51;60.63;102227.78;6340362;22;72834;-69